Time;durP1;ratioP1;P1;durP2;ratioP2;P2;SDS_P1;SDS_P2;PMS_P1;PMS_P2;Temp;Humidity;BMP_temperature;BMP_pressure;BME280_temperature;BME280_humidity;BME280_pressure;Samples;Min_cycle;Max_cycle;Signal;HPM_P1;HPM_P2
2021/12/02 00:02:18;;;;;;;10.18;1.50;;;;;;;;;;6190414;23;20039;-85
2021/12/02 00:04:44;;;;;;;6.15;1.50;;;;;;;;;;6166956;23;20013;-85
2021/12/02 00:07:10;;;;;;;8.70;1.67;;;;;;;;;;6191528;23;20017;-85
2021/12/02 00:09:37;;;;;;;7.35;1.52;;;;;;;;;;6191393;23;20013;-85
2021/12/02 00:12:04;;;;;;;7.80;1.33;;;;;;;;;;6167111;23;20016;-85
2021/12/02 00:14:38;;;;;;;8.38;1.40;;;;;;;;;;6164742;23;20012;-86
2021/12/02 00:17:08;;;;;;;7.88;1.52;;;;;;;;;;6166047;23;20017;-85
2021/12/02 00:22:20;;;;;;;7.47;1.52;;;;;;;;;;6192090;23;20017;-85
2021/12/02 00:24:47;;;;;;;8.55;1.20;;;;;;;;;;6191950;23;20008;-85
2021/12/02 00:27:14;;;;;;;5.57;1.30;;;;;;;;;;6189981;23;20013;-85
2021/12/02 00:29:41;;;;;;;5.07;1.23;;;;;;;;;;6164762;23;20458;-85
2021/12/02 00:32:08;;;;;;;7.50;1.48;;;;;;;;;;6190541;23;20027;-86
2021/12/02 00:34:37;;;;;;;6.85;1.63;;;;;;;;;;6191586;23;20099;-85
2021/12/02 00:37:03;;;;;;;7.00;1.33;;;;;;;;;;6165399;23;20065;-87
2021/12/02 00:39:29;;;;;;;8.35;1.80;;;;;;;;;;6189513;23;20017;-86
2021/12/02 00:41:56;;;;;;;6.53;1.30;;;;;;;;;;6165451;23;20023;-86
2021/12/02 00:44:22;;;;;;;6.78;1.48;;;;;;;;;;6165316;23;20017;-85
2021/12/02 00:46:49;;;;;;;6.45;1.40;;;;;;;;;;6189588;23;20009;-86
2021/12/02 00:49:17;;;;;;;4.82;1.30;;;;;;;;;;6164738;23;20501;-85
2021/12/02 00:51:47;;;;;;;9.15;1.70;;;;;;;;;;6164535;23;20438;-86
2021/12/02 00:54:14;;;;;;;8.35;1.38;;;;;;;;;;6166384;23;20017;-84
2021/12/02 00:56:40;;;;;;;4.88;1.98;;;;;;;;;;6189908;23;20013;-86
2021/12/02 00:59:08;;;;;;;7.95;1.50;;;;;;;;;;6189882;23;20024;-85
2021/12/02 01:01:36;;;;;;;8.90;1.73;;;;;;;;;;6164269;23;20016;-87
2021/12/02 01:04:03;;;;;;;4.90;1.63;;;;;;;;;;6164506;23;20013;-86
2021/12/02 01:06:29;;;;;;;10.48;1.52;;;;;;;;;;6165578;23;20012;-86
2021/12/02 01:08:56;;;;;;;7.38;1.48;;;;;;;;;;6189612;23;20119;-86
2021/12/02 01:11:22;;;;;;;6.20;1.50;;;;;;;;;;6189617;23;20327;-85
2021/12/02 01:13:48;;;;;;;8.13;1.52;;;;;;;;;;6165323;23;20019;-86
2021/12/02 01:16:15;;;;;;;9.05;1.70;;;;;;;;;;6164682;23;20025;-87
2021/12/02 01:18:42;;;;;;;7.47;1.83;;;;;;;;;;6165227;23;20012;-86
2021/12/02 01:21:08;;;;;;;10.05;1.75;;;;;;;;;;6189899;23;20464;-87
2021/12/02 01:23:34;;;;;;;5.70;1.55;;;;;;;;;;6189653;23;20008;-87
2021/12/02 01:26:03;;;;;;;11.25;1.67;;;;;;;;;;6189812;23;20036;-86
2021/12/02 01:28:29;;;;;;;10.02;1.70;;;;;;;;;;6164438;23;20016;-87
2021/12/02 01:30:55;;;;;;;10.35;1.80;;;;;;;;;;6189610;23;20013;-87
2021/12/02 01:33:22;;;;;;;5.03;1.30;;;;;;;;;;6189044;23;20496;-86
2021/12/02 01:35:54;;;;;;;5.22;1.48;;;;;;;;;;6164723;23;20478;-86
2021/12/02 01:38:22;;;;;;;8.18;1.58;;;;;;;;;;6163271;23;20016;-85
2021/12/02 01:40:48;;;;;;;7.63;1.63;;;;;;;;;;6161727;23;20200;-88
2021/12/02 01:43:15;;;;;;;4.38;0.90;;;;;;;;;;6189926;23;20044;-85
2021/12/02 01:45:42;;;;;;;4.50;1.00;;;;;;;;;;6189211;23;20039;-88
2021/12/02 01:48:16;;;;;;;4.10;0.90;;;;;;;;;;6163799;23;20016;-88
2021/12/02 01:50:43;;;;;;;2.78;0.73;;;;;;;;;;6187738;23;20389;-83
2021/12/02 01:53:14;;;;;;;5.05;0.80;;;;;;;;;;6163351;23;20075;-88
2021/12/02 01:55:42;;;;;;;5.15;1.02;;;;;;;;;;6187858;23;20108;-85
2021/12/02 01:58:14;;;;;;;7.13;0.90;;;;;;;;;;6165634;23;20046;-86
2021/12/02 02:00:45;;;;;;;4.88;0.93;;;;;;;;;;6165437;23;20019;-84
2021/12/02 02:03:12;;;;;;;4.10;1.17;;;;;;;;;;6165333;23;20354;-86
2021/12/02 02:05:38;;;;;;;4.85;1.10;;;;;;;;;;6165356;23;20012;-87
2021/12/02 02:08:20;;;;;;;5.13;1.00;;;;;;;;;;6190244;23;20040;-85
2021/12/02 02:10:46;;;;;;;3.85;0.80;;;;;;;;;;6190475;23;20012;-85
2021/12/02 02:13:13;;;;;;;2.88;1.08;;;;;;;;;;6165065;23;20012;-85
2021/12/02 02:15:41;;;;;;;4.75;1.15;;;;;;;;;;6190041;23;20508;-86
2021/12/02 02:18:13;;;;;;;4.00;1.08;;;;;;;;;;6165389;23;20024;-85
2021/12/02 02:21:02;;;;;;;8.75;1.73;;;;;;;;;;6165151;23;20437;-85
2021/12/02 02:23:29;;;;;;;3.60;1.20;;;;;;;;;;6165370;23;20016;-85
2021/12/02 02:25:55;;;;;;;5.25;1.17;;;;;;;;;;6165168;23;20012;-85
2021/12/02 02:28:21;;;;;;;3.97;1.08;;;;;;;;;;6165275;23;20059;-85
2021/12/02 02:30:47;;;;;;;5.90;1.35;;;;;;;;;;6165275;23;20044;-85
2021/12/02 02:33:14;;;;;;;6.68;1.35;;;;;;;;;;6189958;23;20088;-85
2021/12/02 02:35:41;;;;;;;5.93;0.90;;;;;;;;;;6189839;23;20020;-85
2021/12/02 02:38:07;;;;;;;3.97;0.88;;;;;;;;;;6165271;23;20017;-85
2021/12/02 02:40:35;;;;;;;4.95;1.30;;;;;;;;;;6165137;23;20043;-85
2021/12/02 02:43:07;;;;;;;5.28;1.02;;;;;;;;;;6164987;23;20021;-85
2021/12/02 02:45:34;;;;;;;3.55;0.88;;;;;;;;;;6190074;23;20063;-85
2021/12/02 02:48:00;;;;;;;4.50;0.80;;;;;;;;;;6165230;23;20012;-85
2021/12/02 02:50:26;;;;;;;4.78;1.13;;;;;;;;;;6165141;23;20019;-85
2021/12/02 02:53:02;;;;;;;4.07;1.10;;;;;;;;;;6189839;23;20066;-85
2021/12/02 02:55:28;;;;;;;9.38;1.10;;;;;;;;;;6189880;23;20326;-85
2021/12/02 03:00:33;;;;;;;6.53;1.10;;;;;;;;;;6189815;23;20023;-85
2021/12/02 03:06:03;;;;;;;4.43;1.20;;;;;;;;;;6189562;23;20335;-85
2021/12/02 03:08:39;;;;;;;6.03;1.05;;;;;;;;;;6164825;23;20074;-85
2021/12/02 03:11:06;;;;;;;5.85;1.40;;;;;;;;;;6164916;23;20020;-85
2021/12/02 03:13:52;;;;;;;4.90;1.10;;;;;;;;;;6164920;23;20075;-84
2021/12/02 03:19:03;;;;;;;5.95;1.23;;;;;;;;;;6189623;23;20020;-85
2021/12/02 03:21:29;;;;;;;7.53;1.50;;;;;;;;;;6164417;23;20020;-84
2021/12/02 03:23:57;;;;;;;5.22;1.38;;;;;;;;;;6164443;23;20013;-85
2021/12/02 03:26:23;;;;;;;5.47;1.20;;;;;;;;;;6189487;23;20016;-84
2021/12/02 03:28:50;;;;;;;3.50;1.00;;;;;;;;;;6164418;23;20322;-85
2021/12/02 03:31:17;;;;;;;4.70;1.13;;;;;;;;;;6187826;23;20505;-84
2021/12/02 03:33:43;;;;;;;4.20;1.20;;;;;;;;;;6164562;23;20024;-83
2021/12/02 03:36:09;;;;;;;6.65;1.38;;;;;;;;;;6164442;23;20043;-85
2021/12/02 03:38:35;;;;;;;2.65;1.08;;;;;;;;;;6164573;23;20023;-85
2021/12/02 03:41:01;;;;;;;6.50;1.10;;;;;;;;;;6164872;23;20523;-85
2021/12/02 03:43:33;;;;;;;4.85;1.10;;;;;;;;;;6165339;23;20369;-85
2021/12/02 03:45:59;;;;;;;3.97;0.93;;;;;;;;;;6188433;23;20071;-90
2021/12/02 03:48:25;;;;;;;3.88;0.90;;;;;;;;;;6190225;23;20013;-85
2021/12/02 03:50:51;;;;;;;5.47;1.25;;;;;;;;;;6189122;23;20009;-86
2021/12/02 03:53:17;;;;;;;6.13;1.00;;;;;;;;;;6164525;23;20393;-91
2021/12/02 03:55:43;;;;;;;2.13;0.80;;;;;;;;;;6164979;23;20009;-90
2021/12/02 03:58:09;;;;;;;2.42;0.90;;;;;;;;;;6164462;23;20009;-85
2021/12/02 04:00:35;;;;;;;3.03;1.00;;;;;;;;;;6189008;23;20009;-85
2021/12/02 04:03:01;;;;;;;3.03;0.85;;;;;;;;;;6164698;23;20019;-84
2021/12/02 04:05:27;;;;;;;1.92;0.70;;;;;;;;;;6190096;23;20021;-85
2021/12/02 04:07:53;;;;;;;5.97;1.02;;;;;;;;;;6163608;23;20009;-85
2021/12/02 04:10:20;;;;;;;1.77;0.80;;;;;;;;;;6164961;23;20412;-84
2021/12/02 04:13:06;;;;;;;3.50;0.85;;;;;;;;;;6189880;23;20091;-84
2021/12/02 04:15:36;;;;;;;4.47;1.20;;;;;;;;;;6164409;23;20023;-85
2021/12/02 04:18:02;;;;;;;3.38;1.20;;;;;;;;;;6189537;23;20017;-85
2021/12/02 04:20:28;;;;;;;4.95;1.08;;;;;;;;;;6164446;23;20327;-85
2021/12/02 04:22:56;;;;;;;5.18;1.55;;;;;;;;;;6164668;23;20023;-85
2021/12/02 04:25:22;;;;;;;5.10;1.15;;;;;;;;;;6188410;23;20476;-85
2021/12/02 04:27:49;;;;;;;4.65;1.05;;;;;;;;;;6188778;23;20083;-85
2021/12/02 04:30:16;;;;;;;4.07;1.10;;;;;;;;;;6188985;23;20066;-85
2021/12/02 04:32:42;;;;;;;2.60;1.10;;;;;;;;;;6164358;23;20008;-85
2021/12/02 04:35:08;;;;;;;4.53;1.23;;;;;;;;;;6164008;23;20020;-85
2021/12/02 04:37:35;;;;;;;4.63;1.13;;;;;;;;;;6189252;23;20107;-85
2021/12/02 04:40:01;;;;;;;5.93;1.40;;;;;;;;;;6188678;23;20016;-85
2021/12/02 04:42:27;;;;;;;3.67;1.40;;;;;;;;;;6163745;23;20350;-85
2021/12/02 04:44:53;;;;;;;4.03;1.20;;;;;;;;;;6163642;23;20431;-85
2021/12/02 04:47:19;;;;;;;4.75;1.70;;;;;;;;;;6188657;23;20051;-85
2021/12/02 04:49:45;;;;;;;5.10;1.40;;;;;;;;;;6189137;23;20013;-85
2021/12/02 04:52:11;;;;;;;7.78;2.15;;;;;;;;;;6188953;23;20377;-85
2021/12/02 04:54:37;;;;;;;8.55;1.60;;;;;;;;;;6164353;23;20020;-85
2021/12/02 04:57:03;;;;;;;4.57;1.58;;;;;;;;;;6164354;23;20331;-85
2021/12/02 04:59:29;;;;;;;5.90;1.80;;;;;;;;;;6163580;23;20464;-85
2021/12/02 05:01:55;;;;;;;5.22;1.77;;;;;;;;;;6187974;23;20096;-84
2021/12/02 05:04:21;;;;;;;5.13;1.48;;;;;;;;;;6188606;23;20017;-85
2021/12/02 05:06:47;;;;;;;4.60;1.23;;;;;;;;;;6163974;23;20008;-85
2021/12/02 05:09:13;;;;;;;5.55;1.58;;;;;;;;;;6164810;23;20012;-84
2021/12/02 05:11:39;;;;;;;3.75;1.27;;;;;;;;;;6188907;23;20021;-85
2021/12/02 05:14:06;;;;;;;3.10;1.25;;;;;;;;;;6188367;23;20016;-86
2021/12/02 05:16:32;;;;;;;5.15;1.27;;;;;;;;;;6163499;23;20016;-85
2021/12/02 05:18:58;;;;;;;3.13;1.10;;;;;;;;;;6166250;23;20012;-85
2021/12/02 05:21:24;;;;;;;8.45;2.60;;;;;;;;;;6194491;23;20017;-84
2021/12/02 05:23:53;;;;;;;5.90;2.30;;;;;;;;;;6190599;23;20012;-84
2021/12/02 05:26:19;;;;;;;6.63;2.53;;;;;;;;;;6165881;23;20409;-85
2021/12/02 05:28:45;;;;;;;6.30;2.45;;;;;;;;;;6165458;23;20345;-85
2021/12/02 05:31:11;;;;;;;5.75;2.05;;;;;;;;;;6190660;23;20453;-85
2021/12/02 05:33:37;;;;;;;5.57;2.30;;;;;;;;;;6189793;23;20016;-85
2021/12/02 05:36:03;;;;;;;6.22;2.35;;;;;;;;;;6165268;23;20095;-85
2021/12/02 05:38:30;;;;;;;8.35;1.98;;;;;;;;;;6190638;23;20087;-84
2021/12/02 05:40:56;;;;;;;4.78;2.03;;;;;;;;;;6190917;23;20016;-85
2021/12/02 05:43:22;;;;;;;5.03;1.70;;;;;;;;;;6165701;23;20090;-85
2021/12/02 05:45:48;;;;;;;7.55;2.30;;;;;;;;;;6191224;23;20013;-85
2021/12/02 05:48:14;;;;;;;4.20;1.80;;;;;;;;;;6166520;23;20039;-85
2021/12/02 05:50:40;;;;;;;6.47;1.65;;;;;;;;;;6166227;23;20012;-84
2021/12/02 05:53:06;;;;;;;5.13;1.95;;;;;;;;;;6192387;23;20016;-86
2021/12/02 05:55:32;;;;;;;7.20;1.63;;;;;;;;;;6166041;23;20017;-87
2021/12/02 05:57:58;;;;;;;6.05;1.40;;;;;;;;;;6189091;23;20095;-87
2021/12/02 06:00:24;;;;;;;5.45;2.33;;;;;;;;;;6160179;23;20048;-86
2021/12/02 06:02:50;;;;;;;4.07;1.20;;;;;;;;;;6160231;23;20453;-86
2021/12/02 06:05:19;;;;;;;4.05;1.20;;;;;;;;;;6191918;23;20388;-84
2021/12/02 06:07:46;;;;;;;2.75;0.90;;;;;;;;;;6163671;23;20008;-84
2021/12/02 06:10:12;;;;;;;4.00;0.90;;;;;;;;;;6159379;23;20015;-88
2021/12/02 06:12:38;;;;;;;2.65;0.80;;;;;;;;;;6159253;23;20020;-86
2021/12/02 06:15:05;;;;;;;3.88;0.88;;;;;;;;;;6160001;23;20013;-87
2021/12/02 06:17:32;;;;;;;2.72;1.00;;;;;;;;;;6185906;23;20035;-89
2021/12/02 06:19:58;;;;;;;5.75;0.95;;;;;;;;;;6187443;23;20016;-87
2021/12/02 06:22:24;;;;;;;2.53;0.80;;;;;;;;;;6163656;23;20040;-87
2021/12/02 06:28:08;;;;;;;4.70;1.52;;;;;;;;;;6170022;23;20048;-88
2021/12/02 06:30:34;;;;;;;2.10;0.98;;;;;;;;;;6163314;23;20078;-89
2021/12/02 06:33:00;;;;;;;2.45;0.90;;;;;;;;;;6162762;23;20415;-89
2021/12/02 06:35:26;;;;;;;3.45;1.08;;;;;;;;;;6185670;23;20021;-87
2021/12/02 06:37:52;;;;;;;4.95;0.88;;;;;;;;;;6158721;23;20023;-89
2021/12/02 06:40:18;;;;;;;2.97;0.70;;;;;;;;;;6184244;23;20209;-88
2021/12/02 06:42:44;;;;;;;2.67;0.80;;;;;;;;;;6183752;23;20022;-87
2021/12/02 06:45:11;;;;;;;2.97;1.00;;;;;;;;;;6158448;23;20011;-87
2021/12/02 06:47:40;;;;;;;2.63;0.80;;;;;;;;;;6158208;23;20013;-84
2021/12/02 06:50:09;;;;;;;1.85;0.70;;;;;;;;;;6183432;23;20020;-84
2021/12/02 06:52:36;;;;;;;2.00;0.80;;;;;;;;;;6158429;23;20020;-82
2021/12/02 06:55:02;;;;;;;2.35;0.70;;;;;;;;;;6158940;23;20071;-81
2021/12/02 06:57:28;;;;;;;2.00;0.80;;;;;;;;;;6159025;23;20016;-82
2021/12/02 06:59:54;;;;;;;2.45;0.85;;;;;;;;;;6183634;23;20012;-82
2021/12/02 07:02:20;;;;;;;3.63;0.82;;;;;;;;;;6155949;23;20020;-82
2021/12/02 07:04:46;;;;;;;1.67;0.77;;;;;;;;;;6180663;23;20074;-81
2021/12/02 07:07:12;;;;;;;1.48;0.70;;;;;;;;;;6157494;23;20096;-82
2021/12/02 07:09:38;;;;;;;3.03;0.93;;;;;;;;;;6182695;23;20410;-82
2021/12/02 07:12:04;;;;;;;3.40;0.77;;;;;;;;;;6158407;23;20012;-82
2021/12/02 07:14:30;;;;;;;6.25;1.65;;;;;;;;;;6158532;23;20016;-83
2021/12/02 07:16:57;;;;;;;3.28;0.88;;;;;;;;;;6183343;23;20063;-83
2021/12/02 07:19:25;;;;;;;3.15;0.88;;;;;;;;;;6157249;23;20023;-83
2021/12/02 07:21:51;;;;;;;3.55;1.08;;;;;;;;;;6179958;23;20060;-83
2021/12/02 07:24:17;;;;;;;4.45;1.05;;;;;;;;;;6182266;23;20345;-83
2021/12/02 07:26:44;;;;;;;4.63;1.20;;;;;;;;;;6183003;23;20048;-83
2021/12/02 07:29:15;;;;;;;1.98;0.82;;;;;;;;;;6158211;23;20039;-83
2021/12/02 07:31:42;;;;;;;3.60;0.90;;;;;;;;;;6156015;23;20352;-83
2021/12/02 07:34:08;;;;;;;2.90;0.98;;;;;;;;;;6158049;23;20095;-83
2021/12/02 07:36:35;;;;;;;5.82;1.15;;;;;;;;;;6182500;23;20020;-83
2021/12/02 07:39:02;;;;;;;3.53;1.05;;;;;;;;;;6182620;23;20016;-82
2021/12/02 07:41:28;;;;;;;3.35;0.88;;;;;;;;;;6158071;23;20513;-82
2021/12/02 07:43:54;;;;;;;3.67;1.00;;;;;;;;;;6182820;23;20087;-82
2021/12/02 07:46:20;;;;;;;4.65;1.15;;;;;;;;;;6182699;23;20390;-82
2021/12/02 07:48:46;;;;;;;3.92;1.35;;;;;;;;;;6158115;23;20024;-82
2021/12/02 07:51:16;;;;;;;5.43;1.30;;;;;;;;;;6182754;23;20019;-82
2021/12/02 07:53:46;;;;;;;5.72;1.60;;;;;;;;;;6182137;23;20012;-82
2021/12/02 07:56:13;;;;;;;8.13;1.60;;;;;;;;;;6182605;23;20059;-83
2021/12/02 07:58:44;;;;;;;4.50;1.50;;;;;;;;;;6157031;23;20158;-83
2021/12/02 08:01:10;;;;;;;7.75;1.77;;;;;;;;;;6157980;23;20450;-83
2021/12/02 08:03:37;;;;;;;4.93;1.38;;;;;;;;;;6182536;23;20016;-84
2021/12/02 08:06:04;;;;;;;4.50;1.38;;;;;;;;;;6157796;23;20039;-84
2021/12/02 08:08:30;;;;;;;5.05;1.40;;;;;;;;;;6182644;23;20096;-84
2021/12/02 08:10:56;;;;;;;4.32;1.58;;;;;;;;;;6160089;23;20412;-86
2021/12/02 08:13:29;;;;;;;7.10;1.60;;;;;;;;;;6158332;23;20013;-84
2021/12/02 08:15:55;;;;;;;5.50;1.95;;;;;;;;;;6158191;23;20013;-84
2021/12/02 08:18:22;;;;;;;16.02;3.47;;;;;;;;;;6157937;23;20012;-85
2021/12/02 08:20:54;;;;;;;7.22;2.13;;;;;;;;;;6157261;23;20020;-86
2021/12/02 08:24:02;;;;;;;13.30;2.38;;;;;;;;;;6094504;23;20060;-86
2021/12/02 08:38:16;;;;;;;6.93;2.55;;;;;;;;;;6119125;23;20716;-87
2021/12/02 08:44:54;;;;;;;8.30;2.45;;;;;;;;;;6116571;23;20060;-88
2021/12/02 08:48:16;;;;;;;8.90;2.90;;;;;;;;;;6106502;23;20020;-88
2021/12/02 08:54:25;;;;;;;12.20;3.45;;;;;;;;;;6116871;23;20367;-87
2021/12/02 08:57:45;;;;;;;7.65;2.63;;;;;;;;;;6032599;23;20059;-88
2021/12/02 09:00:36;;;;;;;8.63;2.83;;;;;;;;;;6022461;23;20394;-85
2021/12/02 09:03:03;;;;;;;17.17;4.88;;;;;;;;;;6071891;23;20400;-85
2021/12/02 09:05:29;;;;;;;8.52;3.20;;;;;;;;;;6069565;23;20025;-87
2021/12/02 09:07:56;;;;;;;8.18;3.00;;;;;;;;;;6093517;23;20010;-87
2021/12/02 09:10:22;;;;;;;8.55;3.35;;;;;;;;;;6069659;23;20020;-86
2021/12/02 09:12:49;;;;;;;10.15;3.60;;;;;;;;;;6069770;23;20132;-86
2021/12/02 09:15:15;;;;;;;9.50;3.55;;;;;;;;;;6069000;23;20154;-86
2021/12/02 09:17:41;;;;;;;8.38;3.83;;;;;;;;;;6069570;23;20514;-86
2021/12/02 09:20:09;;;;;;;6.75;2.97;;;;;;;;;;6068989;23;20018;-86
2021/12/02 09:22:35;;;;;;;12.25;3.67;;;;;;;;;;6093683;23;20127;-88
2021/12/02 09:25:01;;;;;;;10.18;3.63;;;;;;;;;;6069767;23;20017;-88
2021/12/02 09:27:27;;;;;;;8.07;3.75;;;;;;;;;;6080578;23;20094;-87
2021/12/02 09:29:53;;;;;;;9.00;3.95;;;;;;;;;;6186783;23;20012;-87
2021/12/02 09:32:19;;;;;;;7.40;2.95;;;;;;;;;;6187649;23;20016;-84
2021/12/02 09:34:45;;;;;;;10.02;3.80;;;;;;;;;;6189952;23;20017;-85
2021/12/02 09:37:11;;;;;;;6.50;2.90;;;;;;;;;;6166678;23;20019;-83
2021/12/02 09:39:37;;;;;;;7.47;2.47;;;;;;;;;;6174941;23;20024;-83
2021/12/02 09:42:10;;;;;;;8.98;3.28;;;;;;;;;;6167863;23;20016;-89
2021/12/02 09:44:37;;;;;;;7.93;3.28;;;;;;;;;;6171321;23;20025;-87
2021/12/02 09:47:04;;;;;;;7.63;2.83;;;;;;;;;;6170575;23;20016;-88
2021/12/02 09:49:30;;;;;;;6.15;2.80;;;;;;;;;;6175969;23;20013;-86
2021/12/02 09:52:11;;;;;;;7.40;2.90;;;;;;;;;;6196228;23;20016;-86
2021/12/02 09:57:08;;;;;;;9.13;3.35;;;;;;;;;;6200564;23;20021;-87
2021/12/02 09:59:45;;;;;;;7.75;2.88;;;;;;;;;;6197553;23;20111;-87
2021/12/02 10:02:15;;;;;;;7.05;2.85;;;;;;;;;;6169547;23;20016;-84
2021/12/02 10:04:47;;;;;;;7.03;2.63;;;;;;;;;;6187844;23;20016;-86
2021/12/02 10:07:22;;;;;;;6.72;3.10;;;;;;;;;;6160701;23;20450;-87
2021/12/02 10:09:58;;;;;;;7.13;2.78;;;;;;;;;;6158806;23;20009;-86
2021/12/02 10:12:25;;;;;;;9.85;3.80;;;;;;;;;;6161386;23;20505;-86
2021/12/02 10:14:58;;;;;;;7.68;2.75;;;;;;;;;;6187741;23;20016;-86
2021/12/02 10:17:42;;;;;;;6.35;2.55;;;;;;;;;;6164175;23;20042;-86
2021/12/02 10:20:35;;;;;;;5.25;1.40;;;;;;;;;;6162160;23;20096;-86
2021/12/02 10:23:04;;;;;;;5.78;1.48;;;;;;;;;;6187239;23;20042;-86
2021/12/02 10:25:31;;;;;;;6.43;1.73;;;;;;;;;;6162530;23;20454;-85
2021/12/02 10:28:01;;;;;;;4.38;1.70;;;;;;;;;;6187165;23;20012;-86
2021/12/02 10:30:27;;;;;;;4.63;1.63;;;;;;;;;;6161560;23;20016;-87
2021/12/02 10:32:53;;;;;;;2.88;1.27;;;;;;;;;;6158325;23;20012;-89
2021/12/02 10:35:35;;;;;;;3.85;1.52;;;;;;;;;;6184668;23;20551;-89
2021/12/02 10:38:01;;;;;;;2.25;1.00;;;;;;;;;;6162835;23;20016;-88
2021/12/02 10:40:27;;;;;;;3.72;1.50;;;;;;;;;;6158940;23;20108;-88
2021/12/02 10:42:53;;;;;;;5.85;1.50;;;;;;;;;;6158108;23;20008;-89
2021/12/02 10:45:24;;;;;;;6.13;1.52;;;;;;;;;;6158325;23;20013;-88
2021/12/02 10:47:51;;;;;;;8.80;1.80;;;;;;;;;;6157249;23;20012;-89
2021/12/02 10:50:17;;;;;;;4.07;1.35;;;;;;;;;;6158188;23;20013;-89
2021/12/02 10:52:43;;;;;;;3.22;1.42;;;;;;;;;;6158315;23;20016;-89
2021/12/02 10:55:09;;;;;;;2.72;1.48;;;;;;;;;;6157739;23;20012;-87
2021/12/02 10:57:45;;;;;;;10.32;2.35;;;;;;;;;;6162048;23;20020;-87
2021/12/02 11:00:12;;;;;;;4.93;1.70;;;;;;;;;;6160434;23;20016;-86
2021/12/02 11:02:48;;;;;;;5.05;1.80;;;;;;;;;;6183178;23;20012;-86
2021/12/02 11:05:22;;;;;;;5.68;1.80;;;;;;;;;;6158464;23;20017;-85
2021/12/02 11:07:52;;;;;;;6.18;1.77;;;;;;;;;;6158279;23;20066;-85
2021/12/02 11:10:18;;;;;;;4.25;2.00;;;;;;;;;;6158055;23;20020;-84
2021/12/02 11:12:46;;;;;;;5.00;2.30;;;;;;;;;;6182216;23;20020;-84
2021/12/02 11:15:19;;;;;;;8.75;2.67;;;;;;;;;;6182202;23;20043;-84
2021/12/02 11:17:48;;;;;;;7.70;3.25;;;;;;;;;;6158459;23;20051;-86
2021/12/02 11:20:17;;;;;;;8.27;3.05;;;;;;;;;;6157843;23;20027;-85
2021/12/02 11:22:44;;;;;;;7.55;3.50;;;;;;;;;;6184162;23;20009;-85
2021/12/02 11:25:11;;;;;;;7.35;3.08;;;;;;;;;;6185189;23;20050;-85
2021/12/02 11:27:43;;;;;;;9.05;3.53;;;;;;;;;;6159659;23;20389;-86
2021/12/02 11:30:12;;;;;;;5.22;3.08;;;;;;;;;;6185967;23;20044;-88
2021/12/02 11:36:40;;;;;;;6.22;2.72;;;;;;;;;;6214262;23;20028;-87
2021/12/02 11:46:59;;;;;;;4.70;2.50;;;;;;;;;;6094560;23;20161;-86
2021/12/02 11:50:10;;;;;;;8.13;3.28;;;;;;;;;;6049437;23;20369;-87
2021/12/02 12:00:33;;;;;;;5.53;2.78;;;;;;;;;;6037865;23;20014;-86
2021/12/02 12:03:41;;;;;;;4.95;2.15;;;;;;;;;;6089006;23;20092;-85
2021/12/02 12:06:09;;;;;;;;;;;;;;;;;;6136190;23;20316;-85
2021/12/02 12:39:37;;;;;;;5.50;3.03;;;;;;;;;;6065329;23;20026;-86
2021/12/02 12:42:27;;;;;;;5.55;3.15;;;;;;;;;;6062768;23;20556;-87
2021/12/02 12:45:06;;;;;;;5.20;2.60;;;;;;;;;;6155791;23;20013;-84
2021/12/02 12:51:36;;;;;;;5.32;2.30;;;;;;;;;;6197208;23;20445;-83
2021/12/02 12:57:27;;;;;;;4.35;1.80;;;;;;;;;;6204293;23;20044;-83
2021/12/02 12:59:56;;;;;;;3.28;1.75;;;;;;;;;;6152319;23;20013;-83
2021/12/02 13:02:25;;;;;;;4.63;2.00;;;;;;;;;;6152113;23;20021;-83
2021/12/02 13:04:54;;;;;;;3.53;1.70;;;;;;;;;;6149040;23;20013;-82
2021/12/02 13:07:21;;;;;;;2.88;1.70;;;;;;;;;;6144124;23;20013;-84
2021/12/02 13:13:28;;;;;;;4.53;1.73;;;;;;;;;;6190432;23;20024;-85
2021/12/02 13:16:10;;;;;;;2.13;1.30;;;;;;;;;;6110521;23;20017;-84
2021/12/02 13:18:38;;;;;;;3.42;1.40;;;;;;;;;;6135867;23;20024;-83
2021/12/02 13:21:34;;;;;;;2.33;1.38;;;;;;;;;;6169999;23;20469;-82
2021/12/02 13:24:19;;;;;;;3.50;1.77;;;;;;;;;;6117572;23;20017;-83
2021/12/02 13:30:31;;;;;;;2.67;1.58;;;;;;;;;;6196349;23;20095;-83
2021/12/02 13:36:22;;;;;;;3.60;1.60;;;;;;;;;;6187829;23;20029;-84
2021/12/02 13:39:06;;;;;;;2.70;1.40;;;;;;;;;;6154958;23;20087;-84
2021/12/02 13:42:02;;;;;;;3.05;1.30;;;;;;;;;;6134166;23;20020;-85
2021/12/02 13:47:33;;;;;;;2.83;1.30;;;;;;;;;;6156787;23;20017;-84
2021/12/02 13:50:25;;;;;;;2.13;1.23;;;;;;;;;;6158114;23;20060;-85
2021/12/02 13:53:18;;;;;;;1.80;0.95;;;;;;;;;;6158260;23;20252;-85
2021/12/02 13:59:57;;;;;;;5.13;1.10;;;;;;;;;;6185769;23;20024;-85
2021/12/02 14:10:25;;;;;;;2.95;1.13;;;;;;;;;;6033061;23;20632;-85
2021/12/02 14:14:01;;;;;;;1.85;0.88;;;;;;;;;;6005300;23;20043;-85
2021/12/02 14:27:49;;;;;;;3.63;1.00;;;;;;;;;;5813828;24;20027;-84
2021/12/02 14:31:23;;;;;;;3.85;1.08;;;;;;;;;;5800323;24;20027;-85
2021/12/02 14:34:28;;;;;;;3.45;1.08;;;;;;;;;;5911484;24;20097;-85
2021/12/02 14:37:34;;;;;;;4.28;1.05;;;;;;;;;;5939277;24;20104;-85
2021/12/02 14:40:13;;;;;;;3.53;1.00;;;;;;;;;;5865158;24;20405;-85
2021/12/02 14:43:51;;;;;;;5.85;1.38;;;;;;;;;;5785424;24;20027;-85
2021/12/02 14:47:36;;;;;;;1.77;0.90;;;;;;;;;;5886893;24;20078;-85
2021/12/02 14:51:11;;;;;;;1.95;1.00;;;;;;;;;;5919264;24;20054;-85
2021/12/02 14:54:08;;;;;;;2.22;1.20;;;;;;;;;;5891295;24;20096;-85
2021/12/02 14:57:36;;;;;;;3.90;1.50;;;;;;;;;;5858481;24;20521;-85
2021/12/02 15:01:13;;;;;;;2.63;1.08;;;;;;;;;;5874178;24;20021;-85
2021/12/02 15:04:33;;;;;;;1.80;1.10;;;;;;;;;;5945464;24;20063;-84
2021/12/02 15:27:52;;;;;;;3.45;1.50;;;;;;;;;;5950502;24;20379;-86
2021/12/02 17:23:11;;;;;;;10.57;5.65;;;;;;;;;;6071255;23;20098;-86
2021/12/02 17:26:01;;;;;;;24.05;19.80;;;;;;;;;;6049391;23;20042;-85
2021/12/02 17:49:20;;;;;;;9.45;3.83;;;;;;;;;;6020586;23;20023;-87
2021/12/02 17:58:49;;;;;;;6.90;3.72;;;;;;;;;;6067010;23;20013;-84
2021/12/02 18:01:59;;;;;;;7.38;4.22;;;;;;;;;;6064705;23;20018;-85
2021/12/02 18:33:14;;;;;;;8.57;4.82;;;;;;;;;;6153078;23;20126;-86
2021/12/02 18:35:45;;;;;;;9.60;5.50;;;;;;;;;;6116097;23;20100;-84
2021/12/02 18:45:34;;;;;;;10.48;5.97;;;;;;;;;;6181757;23;20101;-86
2021/12/02 18:48:33;;;;;;;13.52;5.93;;;;;;;;;;6179994;23;20015;-85
2021/12/02 18:51:24;;;;;;;10.52;5.75;;;;;;;;;;6152233;23;20095;-86
2021/12/02 18:53:52;;;;;;;10.70;5.25;;;;;;;;;;6175498;23;20012;-85
2021/12/02 18:56:57;;;;;;;;;;;;;;;;;;6180731;23;20025;-84
2021/12/02 18:59:45;;;;;;;9.90;5.40;;;;;;;;;;6178101;23;19916;-86
2021/12/02 19:06:50;;;;;;;9.25;5.13;;;;;;;;;;6180973;23;20040;-85
2021/12/02 19:38:56;;;;;;;8.88;5.50;;;;;;;;;;6086857;23;20043;-85
2021/12/02 19:41:22;;;;;;;12.02;5.43;;;;;;;;;;6156979;23;20015;-85
2021/12/02 19:43:50;;;;;;;9.27;5.93;;;;;;;;;;6158002;23;20017;-84
2021/12/02 19:46:16;;;;;;;10.82;6.28;;;;;;;;;;6158540;23;20442;-85
2021/12/02 19:48:43;;;;;;;9.88;6.05;;;;;;;;;;6133896;23;20009;-85
2021/12/02 19:51:09;;;;;;;12.75;6.15;;;;;;;;;;6160961;23;20009;-84
2021/12/02 19:53:36;;;;;;;11.18;6.00;;;;;;;;;;6136036;23;20354;-85
2021/12/02 19:56:02;;;;;;;10.55;6.03;;;;;;;;;;6134946;23;20019;-85
2021/12/02 19:58:28;;;;;;;10.00;5.95;;;;;;;;;;6132160;23;20017;-85
2021/12/02 20:00:54;;;;;;;13.43;6.18;;;;;;;;;;6132281;23;20420;-85
2021/12/02 20:03:21;;;;;;;14.98;7.40;;;;;;;;;;6157779;23;20063;-84
2021/12/02 20:05:47;;;;;;;11.48;6.53;;;;;;;;;;6131801;23;20009;-85
2021/12/02 20:08:13;;;;;;;11.20;5.93;;;;;;;;;;6130715;23;20535;-84
2021/12/02 20:10:41;;;;;;;11.95;5.97;;;;;;;;;;6131520;23;20013;-85
2021/12/02 20:13:07;;;;;;;12.05;6.65;;;;;;;;;;6156543;23;20017;-85
2021/12/02 20:15:48;;;;;;;12.57;6.20;;;;;;;;;;6131635;23;20021;-85
2021/12/02 20:18:18;;;;;;;10.77;6.18;;;;;;;;;;6132317;23;20454;-85
2021/12/02 20:20:45;;;;;;;10.95;5.35;;;;;;;;;;6157162;23;20017;-85
2021/12/02 20:23:11;;;;;;;9.07;5.85;;;;;;;;;;6155410;23;20424;-85
2021/12/02 20:25:37;;;;;;;9.45;5.65;;;;;;;;;;6131123;23;20047;-85
2021/12/02 20:28:04;;;;;;;9.55;5.80;;;;;;;;;;6129540;23;20117;-86
2021/12/02 20:30:31;;;;;;;13.95;6.13;;;;;;;;;;6129825;23;20013;-86
2021/12/02 20:32:57;;;;;;;12.32;6.03;;;;;;;;;;6130729;23;20021;-86
2021/12/02 20:35:23;;;;;;;8.95;6.13;;;;;;;;;;6130888;23;20023;-86
2021/12/02 20:37:49;;;;;;;11.35;5.97;;;;;;;;;;6130776;23;20419;-86
2021/12/02 20:40:16;;;;;;;11.10;5.45;;;;;;;;;;6131446;23;20216;-86
2021/12/02 20:42:42;;;;;;;10.90;5.20;;;;;;;;;;6130970;23;20096;-86
2021/12/02 20:45:10;;;;;;;10.77;5.30;;;;;;;;;;6131043;23;20481;-86
2021/12/02 20:47:53;;;;;;;9.52;5.13;;;;;;;;;;6131044;23;20017;-87
2021/12/02 20:50:19;;;;;;;9.50;5.80;;;;;;;;;;6156011;23;20084;-86
2021/12/02 20:52:45;;;;;;;9.25;4.95;;;;;;;;;;6130039;23;20447;-86
2021/12/02 20:55:13;;;;;;;9.77;5.28;;;;;;;;;;6156217;23;20351;-86
2021/12/02 20:57:40;;;;;;;8.75;4.82;;;;;;;;;;6155456;23;20024;-86
2021/12/02 21:00:26;;;;;;;8.35;4.93;;;;;;;;;;6156392;23;20096;-86
2021/12/02 21:02:53;;;;;;;9.27;5.70;;;;;;;;;;6131471;23;20013;-86
2021/12/02 21:05:19;;;;;;;8.20;4.53;;;;;;;;;;6156581;23;20084;-86
2021/12/02 21:07:45;;;;;;;6.57;3.97;;;;;;;;;;6131183;23;20045;-86
2021/12/02 21:10:12;;;;;;;7.15;4.03;;;;;;;;;;6131831;23;20009;-86
2021/12/02 21:12:39;;;;;;;9.93;3.85;;;;;;;;;;6131270;23;20020;-86